Terminal Aerodrome Forecast
Issued by NWS

Home | Current Version | Previous Version | Text Only | Print | Product List | Glossary On
Versions: 1 2 3 4 5 6 7 8 9 10 11 12 13 14 15 16 17 18 19 20
000
FTUS43 KABR 311523 AAA
TAFPIR
TAF AMD
KPIR 311523Z 3115/0112 33018G25KT P6SM BKN150
     FM312100 34013KT P6SM SCT150
     FM010000 VRB05KT P6SM SKC=

USA.gov is the U.S. government's official web portal to all federal, state and local government web resources and services.